createdAt,value
2019-04-28T00:01:11.444Z,6.19
2019-04-28T00:03:44.565Z,6.18
2019-04-28T00:06:18.692Z,6.13
2019-04-28T00:08:51.866Z,6.13
2019-04-28T00:11:25.199Z,6.17
2019-04-28T00:13:58.285Z,6.19
2019-04-28T00:16:32.512Z,6.15
2019-04-28T00:19:06.395Z,6.17
2019-04-28T00:21:54.634Z,6.10
2019-04-28T00:24:52.615Z,6.06
2019-04-28T00:27:25.909Z,5.91
2019-04-28T00:29:58.285Z,5.96
2019-04-28T00:32:32.648Z,5.91
2019-04-28T00:35:06.715Z,5.87
2019-04-28T00:37:39.355Z,5.82
2019-04-28T00:40:13.024Z,5.79
2019-04-28T00:42:45.696Z,5.79
2019-04-28T00:45:18.807Z,5.72
2019-04-28T00:47:54.044Z,5.59
2019-04-28T00:50:27.394Z,5.54
2019-04-28T00:53:01.749Z,5.50
2019-04-28T00:55:35.261Z,5.51
2019-04-28T00:58:06.915Z,5.55
2019-04-28T01:00:41.899Z,5.58
2019-04-28T01:03:15.110Z,5.47
2019-04-28T01:05:48.291Z,5.47
2019-04-28T01:08:20.988Z,5.52
2019-04-28T01:10:53.406Z,5.58
2019-04-28T01:13:26.417Z,5.42
2019-04-28T01:16:12.939Z,5.38
2019-04-28T01:18:52.711Z,5.33
2019-04-28T01:21:30.016Z,5.34
2019-04-28T01:24:03.866Z,5.33
2019-04-28T01:26:39.156Z,5.40
2019-04-28T01:29:13.880Z,5.40
2019-04-28T01:32:04.945Z,5.47
2019-04-28T01:34:40.011Z,5.45
2019-04-28T01:37:13.731Z,5.45
2019-04-28T01:39:47.227Z,5.49
2019-04-28T01:42:20.412Z,5.41
2019-04-28T01:44:53.664Z,5.47
2019-04-28T01:47:26.701Z,5.47
2019-04-28T01:50:01.875Z,5.46
2019-04-28T01:52:35.730Z,5.45
2019-04-28T01:55:10.107Z,5.45
2019-04-28T01:57:43.745Z,5.45
2019-04-28T02:00:23.085Z,5.43
2019-04-28T02:02:51.519Z,5.38
2019-04-28T02:05:25.893Z,5.41
2019-04-28T02:08:01.080Z,5.45
2019-04-28T02:10:35.124Z,5.44
2019-04-28T02:13:09.607Z,5.42
2019-04-28T02:15:44.109Z,5.39
2019-04-28T02:18:16.977Z,5.43
2019-04-28T02:20:55.187Z,5.37
2019-04-28T02:23:31.520Z,5.39
2019-04-28T02:26:04.941Z,5.38
2019-04-28T02:28:36.986Z,5.34
2019-04-28T02:31:11.507Z,5.39
2019-04-28T02:33:44.819Z,5.30
2019-04-28T02:36:17.708Z,5.28
2019-04-28T02:38:52.385Z,5.37
2019-04-28T02:41:25.631Z,5.35
2019-04-28T02:44:00.946Z,5.34
2019-04-28T02:46:34.062Z,5.31
2019-04-28T02:49:10.239Z,5.24
2019-04-28T02:51:51.126Z,5.34
2019-04-28T02:54:24.869Z,5.32
2019-04-28T02:57:01.071Z,5.28
2019-04-28T02:59:33.258Z,5.34
2019-04-28T03:02:06.478Z,5.27
2019-04-28T03:04:41.019Z,5.29
2019-04-28T03:07:14.802Z,5.23
2019-04-28T03:09:47.849Z,5.23
2019-04-28T03:12:21.541Z,5.26
2019-04-28T03:14:55.391Z,5.20
2019-04-28T03:17:30.978Z,5.26
2019-04-28T03:20:03.597Z,5.30
2019-04-28T03:22:36.509Z,5.25
2019-04-28T03:25:12.458Z,5.23
2019-04-28T03:28:03.605Z,5.24
2019-04-28T03:30:53.305Z,5.25
2019-04-28T03:33:26.205Z,5.31
2019-04-28T03:36:07.081Z,5.24
2019-04-28T03:38:35.253Z,5.18
2019-04-28T03:41:10.919Z,5.17
2019-04-28T03:43:43.233Z,5.17
2019-04-28T03:46:20.927Z,5.16
2019-04-28T03:48:54.474Z,5.12
2019-04-28T03:51:27.794Z,5.12
2019-04-28T03:54:02.915Z,5.06
2019-04-28T03:56:36.891Z,5.04
2019-04-28T03:59:11.315Z,5.02
2019-04-28T04:01:55.965Z,5.00
2019-04-28T04:04:21.292Z,5.05
2019-04-28T04:06:54.650Z,4.96
2019-04-28T04:09:31.248Z,4.99
2019-04-28T04:12:21.194Z,5.01
2019-04-28T04:15:03.995Z,5.03
2019-04-28T04:17:41.396Z,5.08
2019-04-28T04:20:23.778Z,5.12
2019-04-28T04:22:57.116Z,5.11
2019-04-28T04:25:31.417Z,5.11
2019-04-28T04:28:05.244Z,5.08
2019-04-28T04:30:40.961Z,5.05
2019-04-28T04:33:13.571Z,5.09
2019-04-28T04:35:46.684Z,5.11
2019-04-28T04:38:18.035Z,5.07
2019-04-28T04:40:51.396Z,5.15
2019-04-28T04:43:25.636Z,5.12
2019-04-28T04:46:17.040Z,5.04
2019-04-28T04:48:50.829Z,5.11
2019-04-28T04:51:24.827Z,5.05
2019-04-28T04:54:00.974Z,4.98
2019-04-28T04:56:34.674Z,5.02
2019-04-28T04:59:10.238Z,4.92
2019-04-28T05:02:02.049Z,4.85
2019-04-28T05:04:45.968Z,4.87
2019-04-28T05:07:19.747Z,4.91
2019-04-28T05:09:53.250Z,4.88
2019-04-28T05:12:25.343Z,4.84
2019-04-28T05:14:57.424Z,4.85
2019-04-28T05:17:30.477Z,4.84
2019-04-28T05:20:04.284Z,4.95
2019-04-28T05:22:42.686Z,4.89
2019-04-28T05:25:30.994Z,4.84
2019-04-28T05:28:02.877Z,4.85
2019-04-28T05:30:38.899Z,4.86
2019-04-28T05:33:13.669Z,4.88
2019-04-28T05:35:47.596Z,4.93
2019-04-28T05:38:21.522Z,4.96
2019-04-28T05:40:55.321Z,5.02
2019-04-28T05:43:29.994Z,4.97
2019-04-28T05:46:03.148Z,5.06
2019-04-28T05:48:41.888Z,5.03
2019-04-28T05:51:19.782Z,5.09
2019-04-28T05:53:59.752Z,5.06
2019-04-28T05:56:50.308Z,5.13
2019-04-28T05:59:46.729Z,5.09
2019-04-28T06:02:24.226Z,5.18
2019-04-28T06:04:57.266Z,5.25
2019-04-28T06:07:36.563Z,5.29
2019-04-28T06:10:12.423Z,5.34
2019-04-28T06:12:46.192Z,5.40
2019-04-28T06:15:20.540Z,5.59
2019-04-28T06:17:54.545Z,5.63
2019-04-28T06:20:30.217Z,5.66
2019-04-28T06:23:02.685Z,5.63
2019-04-28T06:25:35.737Z,5.70
2019-04-28T06:28:08.264Z,5.69
2019-04-28T06:30:41.726Z,5.75
2019-04-28T06:33:15.782Z,5.73
2019-04-28T06:35:49.646Z,5.79
2019-04-28T06:38:24.381Z,5.83
2019-04-28T06:40:57.978Z,5.83
2019-04-28T06:43:31.825Z,6.10
2019-04-28T06:46:05.154Z,5.93
2019-04-28T06:48:38.083Z,6.20
2019-04-28T06:51:11.590Z,6.14
2019-04-28T06:53:46.039Z,6.31
2019-04-28T06:56:20.734Z,6.50
2019-04-28T06:58:59.067Z,6.41
2019-04-28T07:01:30.701Z,6.46
2019-04-28T07:04:03.510Z,6.80
2019-04-28T07:06:36.437Z,6.83
2019-04-28T07:09:10.106Z,7.00
2019-04-28T07:11:43.849Z,6.84
2019-04-28T07:14:16.885Z,7.05
2019-04-28T07:16:49.717Z,7.07
2019-04-28T07:19:22.881Z,7.07
2019-04-28T07:22:09.872Z,7.08
2019-04-28T07:24:44.958Z,7.05
2019-04-28T07:27:17.918Z,7.07
2019-04-28T07:29:51.650Z,7.25
2019-04-28T07:32:25.152Z,7.37
2019-04-28T07:34:56.805Z,7.60
2019-04-28T07:37:29.192Z,7.52
2019-04-28T07:40:02.832Z,7.59
2019-04-28T07:42:36.222Z,7.78
2019-04-28T07:45:08.395Z,8.06
2019-04-28T07:47:41.208Z,8.06
2019-04-28T07:50:14.499Z,8.07
2019-04-28T07:52:55.836Z,8.38
2019-04-28T07:55:29.243Z,8.45
2019-04-28T07:58:00.972Z,8.54
2019-04-28T08:00:34.149Z,8.80
2019-04-28T08:03:07.521Z,9.72
2019-04-28T08:05:41.282Z,9.86
2019-04-28T08:08:15.368Z,9.43
2019-04-28T08:10:48.314Z,9.45
2019-04-28T08:13:21.684Z,9.23
2019-04-28T08:15:54.911Z,9.77
2019-04-28T08:18:27.861Z,10.97
2019-04-28T08:20:59.613Z,10.47
2019-04-28T08:23:32.923Z,10.27
2019-04-28T08:26:06.121Z,10.25
2019-04-28T08:28:40.487Z,10.39
2019-04-28T08:31:15.760Z,11.08
2019-04-28T08:34:02.296Z,11.48
2019-04-28T08:36:28.192Z,11.15
2019-04-28T08:39:02.558Z,11.73
2019-04-28T08:41:35.917Z,12.43
2019-04-28T08:44:06.993Z,12.54
2019-04-28T08:46:40.705Z,12.06
2019-04-28T08:49:13.743Z,11.89
2019-04-28T08:51:47.120Z,11.61
2019-04-28T08:54:21.887Z,12.16
2019-04-28T08:56:56.291Z,12.21
2019-04-28T08:59:29.598Z,12.08
2019-04-28T09:02:00.955Z,11.36
2019-04-28T09:04:33.879Z,11.45
2019-04-28T09:07:07.226Z,11.54
2019-04-28T09:09:38.995Z,11.38
2019-04-28T09:12:11.805Z,11.40
2019-04-28T09:14:45.140Z,11.03
2019-04-28T09:17:17.026Z,12.09
2019-04-28T09:19:50.393Z,11.82
2019-04-28T09:22:24.014Z,12.74
2019-04-28T09:24:57.990Z,12.14
2019-04-28T09:27:31.744Z,12.50
2019-04-28T09:30:05.544Z,13.03
2019-04-28T09:32:38.688Z,13.29
2019-04-28T09:35:13.244Z,13.24
2019-04-28T09:37:47.083Z,13.23
2019-04-28T09:40:20.989Z,14.25
2019-04-28T09:43:13.146Z,14.87
2019-04-28T09:45:54.977Z,15.28
2019-04-28T09:48:29.286Z,15.26
2019-04-28T09:51:02.859Z,15.54
2019-04-28T09:53:36.280Z,14.14
2019-04-28T09:56:09.407Z,13.95
2019-04-28T09:58:43.043Z,13.67
2019-04-28T10:01:16.110Z,13.28
2019-04-28T10:03:49.370Z,12.60
2019-04-28T10:06:22.043Z,13.33
2019-04-28T10:08:56.095Z,13.25
2019-04-28T10:11:30.583Z,13.16
2019-04-28T10:14:04.876Z,12.88
2019-04-28T10:16:38.919Z,13.07
2019-04-28T10:19:13.164Z,13.44
2019-04-28T10:21:47.652Z,11.89
2019-04-28T10:24:22.658Z,13.35
2019-04-28T10:26:56.544Z,14.65
2019-04-28T10:29:29.065Z,15.92
2019-04-28T10:32:21.026Z,16.72
2019-04-28T10:34:55.371Z,16.54
2019-04-28T10:37:29.626Z,16.91
2019-04-28T10:40:08.879Z,15.99
2019-04-28T10:42:42.317Z,15.71
2019-04-28T10:45:19.479Z,16.39
2019-04-28T10:47:51.906Z,15.18
2019-04-28T10:50:25.260Z,15.41
2019-04-28T10:52:59.245Z,15.27
2019-04-28T10:55:32.704Z,13.59
2019-04-28T10:58:06.005Z,14.40
2019-04-28T11:00:40.836Z,13.60
2019-04-28T11:03:14.006Z,14.65
2019-04-28T11:05:47.161Z,14.51
2019-04-28T11:08:27.824Z,14.49
2019-04-28T11:11:04.215Z,14.64
2019-04-28T11:13:37.505Z,14.13
2019-04-28T11:16:13.606Z,13.66
2019-04-28T11:18:47.191Z,13.74
2019-04-28T11:21:20.301Z,13.23
2019-04-28T11:23:53.081Z,13.24
2019-04-28T11:26:30.407Z,13.51
2019-04-28T11:29:04.251Z,13.46
2019-04-28T11:31:39.453Z,13.76
2019-04-28T11:34:22.310Z,13.82
2019-04-28T11:36:56.153Z,14.34
2019-04-28T11:39:32.700Z,14.36
2019-04-28T11:42:06.592Z,13.89
2019-04-28T11:44:40.779Z,13.72
2019-04-28T11:47:17.294Z,13.63
2019-04-28T11:49:50.903Z,14.35
2019-04-28T11:52:24.374Z,14.03
2019-04-28T11:54:58.954Z,13.95
2019-04-28T11:57:32.092Z,14.18
2019-04-28T12:00:10.827Z,14.15
2019-04-28T12:02:44.479Z,14.36
2019-04-28T12:05:19.483Z,14.39
2019-04-28T12:07:53.046Z,14.38
2019-04-28T12:10:30.688Z,14.26
2019-04-28T12:13:31.401Z,14.62
2019-04-28T12:16:23.202Z,14.73
2019-04-28T12:19:11.841Z,14.75
2019-04-28T12:21:44.543Z,15.57
2019-04-28T12:24:18.307Z,15.79
2019-04-28T12:26:51.026Z,15.87
2019-04-28T12:29:24.720Z,16.26
2019-04-28T12:31:57.677Z,16.48
2019-04-28T12:34:31.429Z,16.87
2019-04-28T12:37:05.954Z,17.82
2019-04-28T12:39:41.187Z,18.17
2019-04-28T12:42:15.962Z,17.81
2019-04-28T12:44:49.339Z,18.75
2019-04-28T12:47:22.393Z,17.40
2019-04-28T12:50:06.036Z,16.60
2019-04-28T12:52:38.714Z,17.14
2019-04-28T12:55:12.181Z,16.81
2019-04-28T12:57:46.442Z,16.53
2019-04-28T13:00:58.723Z,17.67
2019-04-28T13:03:44.167Z,18.09
2019-04-28T13:06:18.485Z,18.65
2019-04-28T13:08:51.553Z,16.18
2019-04-28T13:11:24.400Z,16.63
2019-04-28T13:13:58.232Z,18.57
2019-04-28T13:16:32.834Z,19.42
2019-04-28T13:19:07.296Z,18.77
2019-04-28T13:21:43.061Z,17.60
2019-04-28T13:24:16.363Z,17.19
2019-04-28T13:26:52.156Z,16.84
2019-04-28T13:29:24.663Z,19.10
2019-04-28T13:31:58.817Z,16.04
2019-04-28T13:34:33.947Z,17.35
2019-04-28T13:37:07.041Z,17.57
2019-04-28T13:39:46.596Z,16.95
2019-04-28T13:42:19.870Z,17.06
2019-04-28T13:45:01.184Z,18.77
2019-04-28T13:47:34.672Z,17.41
2019-04-28T13:50:17.397Z,18.20
2019-04-28T13:52:52.429Z,19.29
2019-04-28T13:55:43.164Z,19.64
2019-04-28T13:58:18.391Z,21.18
2019-04-28T14:01:14.182Z,20.11
2019-04-28T14:04:05.635Z,20.23
2019-04-28T14:06:44.665Z,20.06
2019-04-28T14:09:18.906Z,21.50
2019-04-28T14:11:52.561Z,21.66
2019-04-28T14:14:25.983Z,22.38
2019-04-28T14:16:59.162Z,22.18
2019-04-28T14:19:33.101Z,22.85
2019-04-28T14:22:06.596Z,18.23
2019-04-28T14:24:39.998Z,20.66
2019-04-28T14:27:13.188Z,20.64
2019-04-28T14:29:47.836Z,19.62
2019-04-28T14:32:22.484Z,21.64
2019-04-28T14:34:55.320Z,21.42
2019-04-28T14:37:28.404Z,20.19
2019-04-28T14:40:01.826Z,20.30
2019-04-28T14:42:36.020Z,20.75
2019-04-28T14:45:09.763Z,20.27
2019-04-28T14:47:45.283Z,19.42
2019-04-28T14:50:18.687Z,19.16
2019-04-28T14:52:51.489Z,18.48
2019-04-28T14:55:25.216Z,18.98
2019-04-28T14:57:58.611Z,18.17
2019-04-28T15:00:37.729Z,17.90
2019-04-28T15:03:13.088Z,18.00
2019-04-28T15:05:55.611Z,18.19
2019-04-28T15:08:47.163Z,18.08
2019-04-28T15:11:39.533Z,16.35
2019-04-28T15:14:12.806Z,16.53
2019-04-28T15:16:45.986Z,16.60
2019-04-28T15:19:18.834Z,16.42
2019-04-28T15:21:54.555Z,16.86
2019-04-28T15:24:27.227Z,16.44
2019-04-28T15:27:01.082Z,16.51
2019-04-28T15:29:38.579Z,16.48
2019-04-28T15:32:11.715Z,15.99
2019-04-28T15:34:49.229Z,15.64
2019-04-28T15:37:22.580Z,16.11
2019-04-28T15:39:55.384Z,16.23
2019-04-28T15:42:26.925Z,16.24
2019-04-28T15:45:00.302Z,15.60
2019-04-28T15:47:34.267Z,16.27
2019-04-28T15:50:08.579Z,16.49
2019-04-28T15:52:41.272Z,16.39
2019-04-28T15:55:17.572Z,15.87
2019-04-28T15:57:50.797Z,15.60
2019-04-28T16:00:31.605Z,15.54
2019-04-28T16:03:05.462Z,15.80
2019-04-28T16:05:38.848Z,16.00
2019-04-28T16:08:11.886Z,15.44
2019-04-28T16:10:46.071Z,15.37
2019-04-28T16:13:21.255Z,15.24
2019-04-28T16:15:57.049Z,15.65
2019-04-28T16:18:32.057Z,15.58
2019-04-28T16:21:05.124Z,15.74
2019-04-28T16:23:38.317Z,14.83
2019-04-28T16:26:12.020Z,14.39
2019-04-28T16:28:47.221Z,14.32
2019-04-28T16:31:20.074Z,14.50
2019-04-28T16:33:53.874Z,14.69
2019-04-28T16:36:28.318Z,14.84
2019-04-28T16:39:01.721Z,14.65
2019-04-28T16:41:43.548Z,14.57
2019-04-28T16:44:25.461Z,14.54
2019-04-28T16:46:57.868Z,14.48
2019-04-28T16:49:32.044Z,13.87
2019-04-28T16:52:06.386Z,13.76
2019-04-28T16:54:41.335Z,13.20
2019-04-28T16:57:32.930Z,13.72
2019-04-28T17:00:37.614Z,13.87
2019-04-28T17:03:10.564Z,13.71
2019-04-28T17:05:43.986Z,13.71
2019-04-28T17:08:17.498Z,13.63
2019-04-28T17:10:52.899Z,13.64
2019-04-28T17:13:26.141Z,13.98
2019-04-28T17:16:00.822Z,13.88
2019-04-28T17:18:35.085Z,13.86
2019-04-28T17:21:08.647Z,13.99
2019-04-28T17:23:42.366Z,13.74
2019-04-28T17:26:15.989Z,13.69
2019-04-28T17:28:51.295Z,13.64
2019-04-28T17:31:25.595Z,13.60
2019-04-28T17:33:58.755Z,13.77
2019-04-28T17:36:31.708Z,13.61
2019-04-28T17:39:09.737Z,13.17
2019-04-28T17:41:43.554Z,13.15
2019-04-28T17:44:17.282Z,13.04
2019-04-28T17:46:51.596Z,12.82
2019-04-28T17:49:33.052Z,12.87
2019-04-28T17:52:10.016Z,12.68
2019-04-28T17:54:44.042Z,12.60
2019-04-28T17:57:16.714Z,12.65
2019-04-28T17:59:52.613Z,12.36
2019-04-28T18:02:43.180Z,12.28
2019-04-28T18:05:31.319Z,12.07
2019-04-28T18:08:05.436Z,11.93
2019-04-28T18:10:39.443Z,11.72
2019-04-28T18:13:13.561Z,11.75
2019-04-28T18:16:03.785Z,11.46
2019-04-28T18:18:42.810Z,11.55
2019-04-28T18:21:16.281Z,11.45
2019-04-28T18:23:50.712Z,11.42
2019-04-28T18:26:24.141Z,11.39
2019-04-28T18:28:58.213Z,10.93
2019-04-28T18:31:56.418Z,11.17
2019-04-28T18:34:54.027Z,10.99
2019-04-28T18:37:46.601Z,10.78
2019-04-28T18:40:41.601Z,10.42
2019-04-28T18:43:25.695Z,10.31
2019-04-28T18:45:59.836Z,10.40
2019-04-28T18:48:36.067Z,10.13
2019-04-28T18:51:08.290Z,10.04
2019-04-28T18:53:40.361Z,10.07
2019-04-28T18:56:13.446Z,9.82
2019-04-28T18:58:47.334Z,9.80
2019-04-28T19:01:40.204Z,9.64
2019-04-28T19:04:14.035Z,9.43
2019-04-28T19:06:48.190Z,9.43
2019-04-28T19:09:46.508Z,9.37
2019-04-28T19:12:27.833Z,9.35
2019-04-28T19:15:26.422Z,9.23
2019-04-28T19:18:08.185Z,9.06
2019-04-28T19:20:50.359Z,9.00
2019-04-28T19:23:26.145Z,8.84
2019-04-28T19:25:59.741Z,8.66
2019-04-28T19:28:33.575Z,8.36
2019-04-28T19:31:06.818Z,8.24
2019-04-28T19:33:40.211Z,8.16
2019-04-28T19:36:13.516Z,8.09
2019-04-28T19:38:46.603Z,8.10
2019-04-28T19:41:18.742Z,8.08
2019-04-28T19:43:50.754Z,8.02
2019-04-28T19:46:27.527Z,8.11
2019-04-28T19:49:03.186Z,7.96
2019-04-28T19:51:37.513Z,7.87
2019-04-28T19:54:11.893Z,8.01
2019-04-28T19:56:50.103Z,7.86
2019-04-28T19:59:42.036Z,7.73
2019-04-28T20:02:15.740Z,7.66
2019-04-28T20:04:56.397Z,7.50
2019-04-28T20:07:30.366Z,7.60
2019-04-28T20:10:04.252Z,7.81
2019-04-28T20:12:37.836Z,7.77
2019-04-28T20:15:15.892Z,7.75
2019-04-28T20:17:50.983Z,7.78
2019-04-28T20:20:26.698Z,7.79
2019-04-28T20:22:59.899Z,7.84
2019-04-28T20:25:33.631Z,7.79
2019-04-28T20:28:07.091Z,7.73
2019-04-28T20:30:39.137Z,7.65
2019-04-28T20:33:12.339Z,7.73
2019-04-28T20:35:50.869Z,7.62
2019-04-28T20:38:31.577Z,7.50
2019-04-28T20:41:26.837Z,7.49
2019-04-28T20:44:02.572Z,7.40
2019-04-28T20:46:36.506Z,7.31
2019-04-28T20:49:10.598Z,7.33
2019-04-28T20:51:45.073Z,7.33
2019-04-28T20:54:20.393Z,7.42
2019-04-28T20:56:56.773Z,7.36
2019-04-28T20:59:31.143Z,7.39
2019-04-28T21:02:04.633Z,7.34
2019-04-28T21:04:36.133Z,7.47
2019-04-28T21:07:09.443Z,7.40
2019-04-28T21:09:42.883Z,7.28
2019-04-28T21:12:15.997Z,7.31
2019-04-28T21:14:49.366Z,7.40
2019-04-28T21:17:24.609Z,7.50
2019-04-28T21:19:58.163Z,7.34
2019-04-28T21:22:33.643Z,7.37
2019-04-28T21:25:07.451Z,7.36
2019-04-28T21:27:40.813Z,7.34
2019-04-28T21:30:14.070Z,7.35
2019-04-28T21:32:45.698Z,7.36
2019-04-28T21:35:20.482Z,7.32
2019-04-28T21:37:53.370Z,7.25
2019-04-28T21:40:27.658Z,7.30
2019-04-28T21:43:21.847Z,7.36
2019-04-28T21:46:08.979Z,7.52
2019-04-28T21:48:58.199Z,7.46
2019-04-28T21:51:32.689Z,7.40
2019-04-28T21:54:07.745Z,7.30
2019-04-28T21:56:41.539Z,7.41
2019-04-28T21:59:15.248Z,7.39
2019-04-28T22:01:49.782Z,7.39
2019-04-28T22:04:23.303Z,7.47
2019-04-28T22:06:54.631Z,7.41
2019-04-28T22:09:31.080Z,7.44
2019-04-28T22:12:06.558Z,7.42
2019-04-28T22:14:41.026Z,7.38
2019-04-28T22:17:17.779Z,7.48
2019-04-28T22:19:52.243Z,7.48
2019-04-28T22:22:25.915Z,7.43
2019-04-28T22:25:05.130Z,7.40
2019-04-28T22:27:42.154Z,7.46
2019-04-28T22:30:15.488Z,7.47
2019-04-28T22:32:48.762Z,7.37
2019-04-28T22:35:21.733Z,7.43
2019-04-28T22:37:55.474Z,7.42
2019-04-28T22:40:28.468Z,7.33
2019-04-28T22:43:02.639Z,7.39
2019-04-28T22:45:36.978Z,7.40
2019-04-28T22:48:11.993Z,7.48
2019-04-28T22:50:48.385Z,7.36
2019-04-28T22:53:25.539Z,7.29
2019-04-28T22:56:07.126Z,7.25
2019-04-28T22:58:49.160Z,7.30
2019-04-28T23:01:34.601Z,7.29
2019-04-28T23:04:11.675Z,7.35
2019-04-28T23:06:45.507Z,7.32
2019-04-28T23:09:20.884Z,7.28
2019-04-28T23:11:56.737Z,7.28
2019-04-28T23:14:30.247Z,7.26
2019-04-28T23:17:01.621Z,7.24
2019-04-28T23:19:36.572Z,7.21
2019-04-28T23:22:15.407Z,7.24
2019-04-28T23:24:50.914Z,7.27
2019-04-28T23:27:24.110Z,7.26
2019-04-28T23:29:57.359Z,7.29
2019-04-28T23:32:31.537Z,7.24
2019-04-28T23:35:04.106Z,7.21
2019-04-28T23:37:38.093Z,7.24
2019-04-28T23:40:14.376Z,7.32
2019-04-28T23:42:53.869Z,7.31
2019-04-28T23:45:27.426Z,7.34
2019-04-28T23:48:01.159Z,7.31
2019-04-28T23:50:46.537Z,7.26
2019-04-28T23:53:21.556Z,7.27
2019-04-28T23:55:54.582Z,7.25
2019-04-28T23:58:28.730Z,7.20
